sensor_id;sensor_type;location;lat;lon;timestamp;P1;durP1;ratioP1;P2;durP2;ratioP2
20365;SDS011;10341;49.894;8.822;2023-08-20T00:04:03;6.47;;;5.07;;
20365;SDS011;10341;49.894;8.822;2023-08-20T00:09:23;6.07;;;4.90;;
20365;SDS011;10341;49.894;8.822;2023-08-20T00:14:58;7.00;;;5.60;;
20365;SDS011;10341;49.894;8.822;2023-08-20T00:20:24;10.43;;;7.15;;
20365;SDS011;10341;49.894;8.822;2023-08-20T00:25:44;7.68;;;5.60;;
20365;SDS011;10341;49.894;8.822;2023-08-20T00:31:03;8.52;;;5.28;;
20365;SDS011;10341;49.894;8.822;2023-08-20T00:36:23;6.63;;;5.40;;
20365;SDS011;10341;49.894;8.822;2023-08-20T00:41:42;8.15;;;5.53;;
20365;SDS011;10341;49.894;8.822;2023-08-20T00:47:02;6.10;;;5.07;;
20365;SDS011;10341;49.894;8.822;2023-08-20T00:52:24;7.38;;;5.85;;
20365;SDS011;10341;49.894;8.822;2023-08-20T00:57:44;6.53;;;5.07;;
20365;SDS011;10341;49.894;8.822;2023-08-20T01:03:03;5.47;;;4.85;;
20365;SDS011;10341;49.894;8.822;2023-08-20T01:08:33;7.10;;;5.28;;
20365;SDS011;10341;49.894;8.822;2023-08-20T01:13:59;5.68;;;5.03;;
20365;SDS011;10341;49.894;8.822;2023-08-20T01:19:20;5.60;;;5.00;;
20365;SDS011;10341;49.894;8.822;2023-08-20T01:24:54;6.93;;;5.50;;
20365;SDS011;10341;49.894;8.822;2023-08-20T01:30:35;8.32;;;6.18;;
20365;SDS011;10341;49.894;8.822;2023-08-20T01:35:55;8.57;;;6.47;;
20365;SDS011;10341;49.894;8.822;2023-08-20T01:41:15;7.50;;;5.47;;
20365;SDS011;10341;49.894;8.822;2023-08-20T01:46:34;6.25;;;5.18;;
20365;SDS011;10341;49.894;8.822;2023-08-20T01:51:53;7.05;;;5.03;;
20365;SDS011;10341;49.894;8.822;2023-08-20T01:57:13;6.63;;;5.00;;
20365;SDS011;10341;49.894;8.822;2023-08-20T02:02:33;5.70;;;4.53;;
20365;SDS011;10341;49.894;8.822;2023-08-20T02:13:12;6.40;;;5.10;;
20365;SDS011;10341;49.894;8.822;2023-08-20T02:18:32;7.05;;;4.80;;
20365;SDS011;10341;49.894;8.822;2023-08-20T02:23:51;6.05;;;4.57;;
20365;SDS011;10341;49.894;8.822;2023-08-20T02:29:10;7.18;;;4.95;;
20365;SDS011;10341;49.894;8.822;2023-08-20T02:34:30;6.57;;;4.90;;
20365;SDS011;10341;49.894;8.822;2023-08-20T02:39:49;5.68;;;4.18;;
20365;SDS011;10341;49.894;8.822;2023-08-20T02:45:08;6.53;;;4.90;;
20365;SDS011;10341;49.894;8.822;2023-08-20T02:50:28;6.30;;;4.45;;
20365;SDS011;10341;49.894;8.822;2023-08-20T02:55:47;5.47;;;4.30;;
20365;SDS011;10341;49.894;8.822;2023-08-20T03:01:06;7.00;;;4.88;;
20365;SDS011;10341;49.894;8.822;2023-08-20T03:06:35;9.95;;;6.00;;
20365;SDS011;10341;49.894;8.822;2023-08-20T03:11:55;8.23;;;5.35;;
20365;SDS011;10341;49.894;8.822;2023-08-20T03:17:15;5.95;;;4.65;;
20365;SDS011;10341;49.894;8.822;2023-08-20T03:22:35;7.95;;;5.20;;
20365;SDS011;10341;49.894;8.822;2023-08-20T03:27:55;12.30;;;6.07;;
20365;SDS011;10341;49.894;8.822;2023-08-20T03:33:15;9.18;;;5.85;;
20365;SDS011;10341;49.894;8.822;2023-08-20T03:38:36;7.10;;;5.70;;
20365;SDS011;10341;49.894;8.822;2023-08-20T03:43:57;6.78;;;5.25;;
20365;SDS011;10341;49.894;8.822;2023-08-20T03:49:17;7.10;;;4.85;;
20365;SDS011;10341;49.894;8.822;2023-08-20T03:59:56;8.48;;;5.57;;
20365;SDS011;10341;49.894;8.822;2023-08-20T04:05:15;8.25;;;5.95;;
20365;SDS011;10341;49.894;8.822;2023-08-20T04:10:35;9.57;;;5.82;;
20365;SDS011;10341;49.894;8.822;2023-08-20T04:15:55;5.82;;;4.60;;
20365;SDS011;10341;49.894;8.822;2023-08-20T04:21:15;7.05;;;4.88;;
20365;SDS011;10341;49.894;8.822;2023-08-20T04:26:34;5.68;;;4.78;;
20365;SDS011;10341;49.894;8.822;2023-08-20T04:31:54;5.25;;;4.50;;
20365;SDS011;10341;49.894;8.822;2023-08-20T04:37:15;5.93;;;4.10;;
20365;SDS011;10341;49.894;8.822;2023-08-20T04:42:34;4.93;;;3.92;;
20365;SDS011;10341;49.894;8.822;2023-08-20T04:47:54;6.72;;;4.53;;
20365;SDS011;10341;49.894;8.822;2023-08-20T04:53:13;4.78;;;4.20;;
20365;SDS011;10341;49.894;8.822;2023-08-20T04:58:35;6.90;;;5.32;;
20365;SDS011;10341;49.894;8.822;2023-08-20T05:03:54;9.38;;;6.03;;
20365;SDS011;10341;49.894;8.822;2023-08-20T05:09:14;8.43;;;5.95;;
20365;SDS011;10341;49.894;8.822;2023-08-20T05:14:34;7.03;;;5.75;;
20365;SDS011;10341;49.894;8.822;2023-08-20T05:19:54;9.27;;;6.13;;
20365;SDS011;10341;49.894;8.822;2023-08-20T05:35:54;8.68;;;6.35;;
20365;SDS011;10341;49.894;8.822;2023-08-20T05:41:14;8.73;;;6.65;;
20365;SDS011;10341;49.894;8.822;2023-08-20T05:46:34;7.50;;;6.18;;
20365;SDS011;10341;49.894;8.822;2023-08-20T05:51:54;11.88;;;6.50;;
20365;SDS011;10341;49.894;8.822;2023-08-20T05:57:17;9.30;;;7.15;;
20365;SDS011;10341;49.894;8.822;2023-08-20T06:02:37;8.95;;;6.25;;
20365;SDS011;10341;49.894;8.822;2023-08-20T06:07:57;8.00;;;6.10;;
20365;SDS011;10341;49.894;8.822;2023-08-20T06:13:17;8.38;;;6.22;;
20365;SDS011;10341;49.894;8.822;2023-08-20T06:18:37;10.35;;;7.40;;
20365;SDS011;10341;49.894;8.822;2023-08-20T06:23:56;10.23;;;7.05;;
20365;SDS011;10341;49.894;8.822;2023-08-20T06:29:16;10.10;;;7.53;;
20365;SDS011;10341;49.894;8.822;2023-08-20T06:34:36;11.00;;;7.07;;
20365;SDS011;10341;49.894;8.822;2023-08-20T06:39:55;9.57;;;7.33;;
20365;SDS011;10341;49.894;8.822;2023-08-20T06:45:14;11.68;;;7.80;;
20365;SDS011;10341;49.894;8.822;2023-08-20T06:50:34;8.73;;;6.63;;
20365;SDS011;10341;49.894;8.822;2023-08-20T06:55:53;8.48;;;6.50;;
20365;SDS011;10341;49.894;8.822;2023-08-20T07:01:13;8.45;;;6.68;;
20365;SDS011;10341;49.894;8.822;2023-08-20T07:06:32;9.20;;;6.83;;
20365;SDS011;10341;49.894;8.822;2023-08-20T07:11:51;9.55;;;7.18;;
20365;SDS011;10341;49.894;8.822;2023-08-20T07:17:11;9.02;;;6.35;;
20365;SDS011;10341;49.894;8.822;2023-08-20T07:22:30;6.80;;;5.70;;
20365;SDS011;10341;49.894;8.822;2023-08-20T07:27:49;8.10;;;6.35;;
20365;SDS011;10341;49.894;8.822;2023-08-20T07:33:09;7.32;;;5.80;;
20365;SDS011;10341;49.894;8.822;2023-08-20T07:43:48;6.80;;;5.53;;
20365;SDS011;10341;49.894;8.822;2023-08-20T07:49:07;8.27;;;5.32;;
20365;SDS011;10341;49.894;8.822;2023-08-20T07:54:27;8.32;;;5.07;;
20365;SDS011;10341;49.894;8.822;2023-08-20T07:59:47;7.82;;;5.30;;
20365;SDS011;10341;49.894;8.822;2023-08-20T08:05:06;7.65;;;5.60;;
20365;SDS011;10341;49.894;8.822;2023-08-20T08:10:26;8.02;;;5.40;;
20365;SDS011;10341;49.894;8.822;2023-08-20T08:15:46;6.85;;;5.53;;
20365;SDS011;10341;49.894;8.822;2023-08-20T08:21:05;6.90;;;5.80;;
20365;SDS011;10341;49.894;8.822;2023-08-20T08:26:25;6.85;;;4.75;;
20365;SDS011;10341;49.894;8.822;2023-08-20T08:31:44;6.18;;;4.80;;
20365;SDS011;10341;49.894;8.822;2023-08-20T08:37:03;6.55;;;4.40;;
20365;SDS011;10341;49.894;8.822;2023-08-20T08:42:22;5.15;;;4.10;;
20365;SDS011;10341;49.894;8.822;2023-08-20T08:47:43;4.82;;;3.95;;
20365;SDS011;10341;49.894;8.822;2023-08-20T08:53:02;3.85;;;3.55;;
20365;SDS011;10341;49.894;8.822;2023-08-20T08:58:23;4.90;;;3.50;;
20365;SDS011;10341;49.894;8.822;2023-08-20T09:03:43;4.70;;;3.50;;
20365;SDS011;10341;49.894;8.822;2023-08-20T09:09:05;4.40;;;3.75;;
20365;SDS011;10341;49.894;8.822;2023-08-20T09:14:29;6.65;;;3.45;;
20365;SDS011;10341;49.894;8.822;2023-08-20T09:19:48;4.65;;;3.80;;
20365;SDS011;10341;49.894;8.822;2023-08-20T09:25:07;4.70;;;3.30;;
20365;SDS011;10341;49.894;8.822;2023-08-20T09:30:36;5.05;;;3.72;;
20365;SDS011;10341;49.894;8.822;2023-08-20T09:35:59;3.97;;;3.05;;
20365;SDS011;10341;49.894;8.822;2023-08-20T09:41:18;3.72;;;3.30;;
20365;SDS011;10341;49.894;8.822;2023-08-20T09:46:38;5.25;;;3.25;;
20365;SDS011;10341;49.894;8.822;2023-08-20T09:51:59;3.92;;;3.25;;
20365;SDS011;10341;49.894;8.822;2023-08-20T10:03:00;3.85;;;3.55;;
20365;SDS011;10341;49.894;8.822;2023-08-20T10:08:21;3.53;;;3.22;;
20365;SDS011;10341;49.894;8.822;2023-08-20T10:13:40;3.35;;;3.05;;
20365;SDS011;10341;49.894;8.822;2023-08-20T10:19:03;3.40;;;3.10;;
20365;SDS011;10341;49.894;8.822;2023-08-20T10:24:25;3.15;;;2.85;;
20365;SDS011;10341;49.894;8.822;2023-08-20T10:29:45;3.08;;;2.78;;
20365;SDS011;10341;49.894;8.822;2023-08-20T10:35:05;3.25;;;2.95;;
20365;SDS011;10341;49.894;8.822;2023-08-20T10:46:23;3.22;;;2.92;;
20365;SDS011;10341;49.894;8.822;2023-08-20T10:51:44;4.07;;;2.90;;
20365;SDS011;10341;49.894;8.822;2023-08-20T10:57:07;3.00;;;2.70;;
20365;SDS011;10341;49.894;8.822;2023-08-20T11:02:27;4.45;;;2.60;;
20365;SDS011;10341;49.894;8.822;2023-08-20T11:07:48;2.20;;;2.00;;
20365;SDS011;10341;49.894;8.822;2023-08-20T11:13:07;3.13;;;2.53;;
20365;SDS011;10341;49.894;8.822;2023-08-20T11:18:27;3.00;;;2.75;;
20365;SDS011;10341;49.894;8.822;2023-08-20T11:23:46;3.38;;;2.40;;
20365;SDS011;10341;49.894;8.822;2023-08-20T11:29:10;3.13;;;2.50;;
20365;SDS011;10341;49.894;8.822;2023-08-20T11:34:36;4.57;;;3.00;;
20365;SDS011;10341;49.894;8.822;2023-08-20T11:39:58;3.42;;;2.70;;
20365;SDS011;10341;49.894;8.822;2023-08-20T11:45:17;3.33;;;2.53;;
20365;SDS011;10341;49.894;8.822;2023-08-20T11:50:37;6.15;;;2.97;;
20365;SDS011;10341;49.894;8.822;2023-08-20T11:55:57;4.10;;;2.17;;
20365;SDS011;10341;49.894;8.822;2023-08-20T12:01:17;2.35;;;2.15;;
20365;SDS011;10341;49.894;8.822;2023-08-20T12:06:39;2.75;;;2.20;;
20365;SDS011;10341;49.894;8.822;2023-08-20T12:12:01;2.97;;;2.40;;
20365;SDS011;10341;49.894;8.822;2023-08-20T12:17:21;3.85;;;2.65;;
20365;SDS011;10341;49.894;8.822;2023-08-20T12:22:41;3.92;;;2.65;;
20365;SDS011;10341;49.894;8.822;2023-08-20T12:28:01;2.30;;;2.05;;
20365;SDS011;10341;49.894;8.822;2023-08-20T12:33:23;3.35;;;2.55;;
20365;SDS011;10341;49.894;8.822;2023-08-20T12:38:42;3.10;;;2.45;;
20365;SDS011;10341;49.894;8.822;2023-08-20T12:44:02;3.83;;;3.17;;
20365;SDS011;10341;49.894;8.822;2023-08-20T12:49:22;3.60;;;2.78;;
20365;SDS011;10341;49.894;8.822;2023-08-20T12:54:41;3.70;;;3.17;;
20365;SDS011;10341;49.894;8.822;2023-08-20T13:00:01;5.40;;;2.80;;
20365;SDS011;10341;49.894;8.822;2023-08-20T13:05:30;4.00;;;2.42;;
20365;SDS011;10341;49.894;8.822;2023-08-20T13:10:52;5.30;;;2.63;;
20365;SDS011;10341;49.894;8.822;2023-08-20T13:16:14;3.83;;;2.22;;
20365;SDS011;10341;49.894;8.822;2023-08-20T13:21:33;4.43;;;2.53;;
20365;SDS011;10341;49.894;8.822;2023-08-20T13:26:53;3.00;;;2.22;;
20365;SDS011;10341;49.894;8.822;2023-08-20T13:32:13;2.85;;;2.15;;
20365;SDS011;10341;49.894;8.822;2023-08-20T13:37:32;2.97;;;2.60;;
20365;SDS011;10341;49.894;8.822;2023-08-20T13:42:52;5.85;;;2.90;;
20365;SDS011;10341;49.894;8.822;2023-08-20T13:48:12;4.70;;;3.22;;
20365;SDS011;10341;49.894;8.822;2023-08-20T13:53:31;4.40;;;3.10;;
20365;SDS011;10341;49.894;8.822;2023-08-20T13:58:52;3.53;;;3.20;;
20365;SDS011;10341;49.894;8.822;2023-08-20T14:04:13;3.05;;;2.63;;
20365;SDS011;10341;49.894;8.822;2023-08-20T14:09:33;3.78;;;3.00;;
20365;SDS011;10341;49.894;8.822;2023-08-20T14:14:55;4.82;;;3.20;;
20365;SDS011;10341;49.894;8.822;2023-08-20T14:20:15;4.45;;;2.80;;
20365;SDS011;10341;49.894;8.822;2023-08-20T14:25:34;4.43;;;2.58;;
20365;SDS011;10341;49.894;8.822;2023-08-20T14:30:54;3.53;;;2.45;;
20365;SDS011;10341;49.894;8.822;2023-08-20T14:36:13;3.45;;;2.72;;
20365;SDS011;10341;49.894;8.822;2023-08-20T14:41:33;4.82;;;2.70;;
20365;SDS011;10341;49.894;8.822;2023-08-20T14:46:53;5.35;;;2.85;;
20365;SDS011;10341;49.894;8.822;2023-08-20T14:52:12;4.50;;;2.80;;
20365;SDS011;10341;49.894;8.822;2023-08-20T14:57:32;3.85;;;2.80;;
20365;SDS011;10341;49.894;8.822;2023-08-20T15:02:52;3.90;;;2.63;;
20365;SDS011;10341;49.894;8.822;2023-08-20T15:08:11;4.10;;;2.70;;
20365;SDS011;10341;49.894;8.822;2023-08-20T15:13:31;4.45;;;2.65;;
20365;SDS011;10341;49.894;8.822;2023-08-20T15:18:51;3.65;;;2.60;;
20365;SDS011;10341;49.894;8.822;2023-08-20T15:24:11;3.42;;;2.50;;
20365;SDS011;10341;49.894;8.822;2023-08-20T15:29:31;4.78;;;3.42;;
20365;SDS011;10341;49.894;8.822;2023-08-20T15:34:50;3.53;;;2.65;;
20365;SDS011;10341;49.894;8.822;2023-08-20T15:40:10;5.13;;;2.92;;
20365;SDS011;10341;49.894;8.822;2023-08-20T15:45:33;4.00;;;2.83;;
20365;SDS011;10341;49.894;8.822;2023-08-20T15:50:52;3.50;;;3.20;;
20365;SDS011;10341;49.894;8.822;2023-08-20T15:56:12;4.93;;;3.17;;
20365;SDS011;10341;49.894;8.822;2023-08-20T16:01:31;3.97;;;3.08;;
20365;SDS011;10341;49.894;8.822;2023-08-20T16:06:51;3.80;;;2.90;;
20365;SDS011;10341;49.894;8.822;2023-08-20T16:12:11;3.05;;;2.75;;
20365;SDS011;10341;49.894;8.822;2023-08-20T16:17:31;4.65;;;3.17;;
20365;SDS011;10341;49.894;8.822;2023-08-20T16:22:50;5.07;;;3.67;;
20365;SDS011;10341;49.894;8.822;2023-08-20T16:28:10;4.88;;;3.58;;
20365;SDS011;10341;49.894;8.822;2023-08-20T16:33:33;6.07;;;4.45;;
20365;SDS011;10341;49.894;8.822;2023-08-20T16:38:53;5.90;;;4.53;;
20365;SDS011;10341;49.894;8.822;2023-08-20T16:44:13;5.10;;;3.90;;
20365;SDS011;10341;49.894;8.822;2023-08-20T16:49:33;7.25;;;5.00;;
20365;SDS011;10341;49.894;8.822;2023-08-20T16:54:53;31.13;;;26.38;;
20365;SDS011;10341;49.894;8.822;2023-08-20T17:00:13;16.25;;;12.02;;
20365;SDS011;10341;49.894;8.822;2023-08-20T17:05:34;10.32;;;7.25;;
20365;SDS011;10341;49.894;8.822;2023-08-20T17:10:53;5.35;;;3.90;;
20365;SDS011;10341;49.894;8.822;2023-08-20T17:16:13;7.55;;;5.30;;
20365;SDS011;10341;49.894;8.822;2023-08-20T17:21:33;8.30;;;6.53;;
20365;SDS011;10341;49.894;8.822;2023-08-20T17:26:52;6.63;;;4.32;;
20365;SDS011;10341;49.894;8.822;2023-08-20T17:32:12;4.22;;;3.60;;
20365;SDS011;10341;49.894;8.822;2023-08-20T17:37:31;5.50;;;4.28;;
20365;SDS011;10341;49.894;8.822;2023-08-20T17:42:51;5.97;;;3.85;;
20365;SDS011;10341;49.894;8.822;2023-08-20T17:48:10;4.70;;;3.42;;
20365;SDS011;10341;49.894;8.822;2023-08-20T17:53:30;4.55;;;3.63;;
20365;SDS011;10341;49.894;8.822;2023-08-20T17:58:50;7.82;;;4.78;;
20365;SDS011;10341;49.894;8.822;2023-08-20T18:04:10;12.75;;;7.95;;
20365;SDS011;10341;49.894;8.822;2023-08-20T18:09:30;8.20;;;6.38;;
20365;SDS011;10341;49.894;8.822;2023-08-20T18:14:54;8.10;;;5.85;;
20365;SDS011;10341;49.894;8.822;2023-08-20T18:30:54;7.50;;;4.72;;
20365;SDS011;10341;49.894;8.822;2023-08-20T18:36:19;7.55;;;5.00;;
20365;SDS011;10341;49.894;8.822;2023-08-20T18:41:40;9.05;;;5.57;;
20365;SDS011;10341;49.894;8.822;2023-08-20T18:47:00;7.07;;;5.18;;
20365;SDS011;10341;49.894;8.822;2023-08-20T18:52:20;5.80;;;4.68;;
20365;SDS011;10341;49.894;8.822;2023-08-20T19:03:00;9.17;;;5.20;;
20365;SDS011;10341;49.894;8.822;2023-08-20T19:08:21;9.48;;;5.18;;
20365;SDS011;10341;49.894;8.822;2023-08-20T19:13:42;9.43;;;5.70;;
20365;SDS011;10341;49.894;8.822;2023-08-20T19:19:01;6.95;;;5.03;;
20365;SDS011;10341;49.894;8.822;2023-08-20T19:24:21;8.55;;;5.22;;
20365;SDS011;10341;49.894;8.822;2023-08-20T19:29:41;9.00;;;5.68;;
20365;SDS011;10341;49.894;8.822;2023-08-20T19:35:01;8.20;;;5.05;;
20365;SDS011;10341;49.894;8.822;2023-08-20T19:40:20;10.23;;;5.72;;
20365;SDS011;10341;49.894;8.822;2023-08-20T19:45:40;12.75;;;7.03;;
20365;SDS011;10341;49.894;8.822;2023-08-20T19:51:00;8.77;;;5.13;;
20365;SDS011;10341;49.894;8.822;2023-08-20T19:56:20;8.82;;;5.50;;
20365;SDS011;10341;49.894;8.822;2023-08-20T20:01:53;8.13;;;5.55;;
20365;SDS011;10341;49.894;8.822;2023-08-20T20:07:13;9.18;;;5.03;;
20365;SDS011;10341;49.894;8.822;2023-08-20T20:17:53;9.73;;;5.10;;
20365;SDS011;10341;49.894;8.822;2023-08-20T20:23:14;9.50;;;6.65;;
20365;SDS011;10341;49.894;8.822;2023-08-20T20:28:35;6.70;;;5.05;;
20365;SDS011;10341;49.894;8.822;2023-08-20T20:33:58;7.75;;;5.20;;
20365;SDS011;10341;49.894;8.822;2023-08-20T20:44:38;6.10;;;4.93;;
20365;SDS011;10341;49.894;8.822;2023-08-20T20:49:58;7.68;;;5.05;;
20365;SDS011;10341;49.894;8.822;2023-08-20T20:55:18;5.75;;;4.32;;
20365;SDS011;10341;49.894;8.822;2023-08-20T21:05:57;9.93;;;5.88;;
20365;SDS011;10341;49.894;8.822;2023-08-20T21:11:16;9.23;;;5.18;;
20365;SDS011;10341;49.894;8.822;2023-08-20T21:16:36;7.70;;;5.30;;
20365;SDS011;10341;49.894;8.822;2023-08-20T21:21:54;11.20;;;6.10;;
20365;SDS011;10341;49.894;8.822;2023-08-20T21:27:20;11.27;;;5.35;;
20365;SDS011;10341;49.894;8.822;2023-08-20T21:32:39;9.18;;;5.10;;
20365;SDS011;10341;49.894;8.822;2023-08-20T21:37:59;10.32;;;5.57;;
20365;SDS011;10341;49.894;8.822;2023-08-20T21:43:18;8.90;;;5.93;;
20365;SDS011;10341;49.894;8.822;2023-08-20T21:48:38;11.10;;;5.90;;
20365;SDS011;10341;49.894;8.822;2023-08-20T21:53:57;8.35;;;5.75;;
20365;SDS011;10341;49.894;8.822;2023-08-20T21:59:17;8.95;;;6.10;;
20365;SDS011;10341;49.894;8.822;2023-08-20T22:04:36;7.38;;;5.28;;
20365;SDS011;10341;49.894;8.822;2023-08-20T22:09:56;7.88;;;5.28;;
20365;SDS011;10341;49.894;8.822;2023-08-20T22:15:15;7.35;;;4.95;;
20365;SDS011;10341;49.894;8.822;2023-08-20T22:20:34;8.05;;;5.68;;
20365;SDS011;10341;49.894;8.822;2023-08-20T22:25:54;6.47;;;4.72;;
20365;SDS011;10341;49.894;8.822;2023-08-20T22:31:13;9.25;;;5.60;;
20365;SDS011;10341;49.894;8.822;2023-08-20T22:36:33;11.63;;;6.03;;
20365;SDS011;10341;49.894;8.822;2023-08-20T22:41:53;7.65;;;5.68;;
20365;SDS011;10341;49.894;8.822;2023-08-20T22:47:12;10.93;;;5.87;;
20365;SDS011;10341;49.894;8.822;2023-08-20T22:52:32;8.88;;;6.32;;
20365;SDS011;10341;49.894;8.822;2023-08-20T22:57:51;9.77;;;5.83;;
20365;SDS011;10341;49.894;8.822;2023-08-20T23:03:13;7.85;;;5.60;;
20365;SDS011;10341;49.894;8.822;2023-08-20T23:08:33;8.32;;;6.18;;
20365;SDS011;10341;49.894;8.822;2023-08-20T23:13:52;8.38;;;5.65;;
20365;SDS011;10341;49.894;8.822;2023-08-20T23:19:11;10.13;;;6.20;;
20365;SDS011;10341;49.894;8.822;2023-08-20T23:24:30;9.13;;;5.78;;
20365;SDS011;10341;49.894;8.822;2023-08-20T23:29:50;7.82;;;5.13;;
20365;SDS011;10341;49.894;8.822;2023-08-20T23:35:09;7.65;;;5.57;;
20365;SDS011;10341;49.894;8.822;2023-08-20T23:45:48;9.60;;;5.55;;
20365;SDS011;10341;49.894;8.822;2023-08-20T23:51:08;8.65;;;5.60;;
20365;SDS011;10341;49.894;8.822;2023-08-20T23:56:27;8.73;;;6.03;;
